createdAt,value
2023-01-15T00:04:46.209Z,78.97
2023-01-15T00:14:49.966Z,81.03
2023-01-15T00:25:12.241Z,78.63
2023-01-15T00:35:18.983Z,80.50
2023-01-15T00:45:24.274Z,79.70
2023-01-15T00:55:28.214Z,80.53
2023-01-15T01:05:34.274Z,77.93
2023-01-15T01:15:38.928Z,78.63
2023-01-15T01:25:43.803Z,76.60
2023-01-15T01:35:50.515Z,80.20
2023-01-15T01:45:55.674Z,77.40
2023-01-15T01:56:00.874Z,78.90
2023-01-15T02:06:11.259Z,78.43
2023-01-15T02:16:21.100Z,77.57
2023-01-15T02:26:57.035Z,77.03
2023-01-15T02:37:06.630Z,79.40
2023-01-15T02:47:14.468Z,80.47
2023-01-15T02:57:19.983Z,78.97
2023-01-15T03:07:38.508Z,78.30
2023-01-15T03:17:50.070Z,81.00
2023-01-15T03:27:59.835Z,78.50
2023-01-15T03:38:04.918Z,77.00
2023-01-15T03:48:19.271Z,80.07
2023-01-15T03:58:29.172Z,77.97
2023-01-15T04:08:39.532Z,80.70
2023-01-15T04:18:43.216Z,79.00
2023-01-15T04:28:48.182Z,79.23
2023-01-15T04:38:51.677Z,80.40
2023-01-15T04:48:56.558Z,80.23
2023-01-15T04:59:02.557Z,80.87
2023-01-15T05:09:07.708Z,81.97
2023-01-15T05:19:11.695Z,79.93
2023-01-15T05:29:16.742Z,81.50
2023-01-15T05:39:20.350Z,81.20
2023-01-15T05:49:27.823Z,82.73
2023-01-15T05:59:33.150Z,90.93
2023-01-15T06:09:38.134Z,81.80
2023-01-15T06:19:41.862Z,84.93
2023-01-15T06:29:46.671Z,78.53
2023-01-15T06:39:50.147Z,80.70
2023-01-15T06:49:57.712Z,81.70
2023-01-15T07:00:01.212Z,80.90
2023-01-15T07:10:07.170Z,78.37
2023-01-15T07:20:12.515Z,81.83
2023-01-15T07:30:18.119Z,81.30
2023-01-15T07:40:21.609Z,79.23
2023-01-15T07:50:26.754Z,83.67
2023-01-15T08:00:30.479Z,82.83
2023-01-15T08:10:55.842Z,82.73
2023-01-15T08:20:59.270Z,82.67
2023-01-15T08:31:04.144Z,94.47
2023-01-15T08:41:07.899Z,87.10
2023-01-15T08:51:13.795Z,87.80
2023-01-15T09:01:17.381Z,85.33
2023-01-15T09:11:22.437Z,84.43
2023-01-15T09:21:25.873Z,87.43
2023-01-15T09:31:31.402Z,85.17
2023-01-15T09:42:08.429Z,82.10
2023-01-15T09:52:27.809Z,90.00
2023-01-15T10:02:40.062Z,86.57
2023-01-15T10:12:47.221Z,90.00
2023-01-15T10:23:08.175Z,87.83
2023-01-15T10:33:49.106Z,91.67
2023-01-15T10:43:59.241Z,84.67
2023-01-15T10:54:13.924Z,83.97
2023-01-15T11:04:17.443Z,83.23
2023-01-15T11:14:39.976Z,89.50
2023-01-15T11:24:53.585Z,83.30
2023-01-15T11:35:00.446Z,83.90
2023-01-15T11:45:21.524Z,80.90
2023-01-15T11:55:28.784Z,82.27
2023-01-15T12:05:36.237Z,82.73
2023-01-15T12:15:51.643Z,88.07
2023-01-15T12:26:03.473Z,95.33
2023-01-15T12:36:17.062Z,88.73
2023-01-15T12:46:29.107Z,82.13
2023-01-15T12:56:46.870Z,81.70
2023-01-15T13:06:57.355Z,86.07
2023-01-15T13:17:07.640Z,86.90
2023-01-15T13:27:25.011Z,87.97
2023-01-15T13:37:33.914Z,86.70
2023-01-15T13:47:43.017Z,84.33
2023-01-15T13:57:49.018Z,86.47
2023-01-15T14:07:52.451Z,86.03
2023-01-15T14:18:14.744Z,85.63
2023-01-15T14:28:44.365Z,88.03
2023-01-15T14:38:54.628Z,84.87
2023-01-15T14:48:59.025Z,111.77
2023-01-15T14:59:12.685Z,84.97
2023-01-15T15:09:26.200Z,84.17
2023-01-15T15:19:36.493Z,90.23
2023-01-15T15:29:39.950Z,87.10
2023-01-15T15:39:53.864Z,88.73
2023-01-15T15:49:58.574Z,90.73
2023-01-15T16:00:03.883Z,95.53
2023-01-15T16:10:17.759Z,101.83
2023-01-15T16:20:23.189Z,87.30
2023-01-15T16:30:27.137Z,99.43
2023-01-15T16:40:35.802Z,100.97
2023-01-15T16:50:42.340Z,94.70
2023-01-15T17:00:50.011Z,95.07
2023-01-15T17:10:56.208Z,92.93
2023-01-15T17:21:02.176Z,97.73
2023-01-15T17:31:05.981Z,102.67
2023-01-15T17:41:14.687Z,86.80
2023-01-15T17:51:18.434Z,85.87
2023-01-15T18:01:44.907Z,86.13
2023-01-15T18:11:48.566Z,85.90
2023-01-15T18:21:53.399Z,89.97
2023-01-15T18:31:56.884Z,85.07
2023-01-15T18:42:19.703Z,90.33
2023-01-15T18:52:40.862Z,85.70
2023-01-15T19:02:46.280Z,84.43
2023-01-15T19:12:50.435Z,84.20
2023-01-15T19:23:05.214Z,88.03
2023-01-15T19:33:11.071Z,98.73
2023-01-15T19:43:33.190Z,96.30
2023-01-15T19:53:37.344Z,104.37
2023-01-15T20:03:42.316Z,98.20
2023-01-15T20:13:53.613Z,101.37
2023-01-15T20:23:58.538Z,83.60
2023-01-15T20:34:02.850Z,86.07
2023-01-15T20:44:25.838Z,86.67
2023-01-15T20:54:29.686Z,84.63
2023-01-15T21:04:34.793Z,85.30
2023-01-15T21:14:38.347Z,87.93
2023-01-15T21:24:43.337Z,82.20
2023-01-15T21:34:46.803Z,80.87
2023-01-15T21:44:51.827Z,81.73
2023-01-15T21:54:55.307Z,80.30
2023-01-15T22:05:00.358Z,79.97
2023-01-15T22:15:03.861Z,80.93
2023-01-15T22:25:13.355Z,80.27
2023-01-15T22:35:16.927Z,83.70
2023-01-15T22:45:21.812Z,80.27
2023-01-15T22:55:25.412Z,81.50
2023-01-15T23:05:30.239Z,80.80
2023-01-15T23:15:33.709Z,81.23
2023-01-15T23:25:38.538Z,82.73
2023-01-15T23:35:42.013Z,82.97
2023-01-15T23:46:06.796Z,81.27
2023-01-15T23:56:11.057Z,81.53
